• Join FlightAware (Why Join?)
  • Login
  • US Flag 
10:18AM EDT


 

Airport Tracker/Info


-or-


 

Live Flight TrackerFlight Track Log ✈ N38884 ✈ 04-May-2013 ✈ KOFP - KPHN

Flight Track Log - Related Links

Times and Time Zones

All times are in EDT time to prevent confusion due to time zone crossing. See the N38884 flight status page for this flight to view local times or setup timezone preferences in your user account.

Time Position Orientation Groundspeed Altitude Reporting Facility
EDT Latitude Longitude Course Direction KTS MPH feet Rate Location/Type
11:53AM 38.0000 -77.7333 325° Northwest 137 158 2,200  Level Potomac TRACON
11:54AM 38.0333 -77.7500 339° North 137 158 2,300  Climbing Potomac TRACON
11:55AM 38.0667 -77.7833 322° Northwest 138 159 2,200 -60 Descending Potomac TRACON
11:56AM 38.1000 -77.8167 322° Northwest 140 161 2,200 60 Level Potomac TRACON
11:57AM 38.1333 -77.8500 322° Northwest 140 161 2,400 120 Climbing Potomac TRACON
11:58AM 38.1667 -77.8667 339° North 133 153 2,500  Climbing Potomac TRACON
11:59AM 38.0314 -77.7248 325° Northwest  Level Estimated
11:59AM 38.2000 -77.8833 339° North 140 161 2,400  Level Potomac TRACON
12:01PM 38.2333 -77.9167 322° Northwest 117 135 3,000 180 Climbing Potomac TRACON
12:02PM 38.2667 -77.9333 339° North 138 159 2,900 -60 Descending Potomac TRACON
12:03PM 38.2833 -77.9667 303° West 136 157 2,900  Level Potomac TRACON
12:04PM 38.3167 -78.0000 322° Northwest 140 161 2,900  Level Potomac TRACON
12:05PM 38.3500 -78.0167 339° North 142 163 2,900  Level Potomac TRACON
12:06PM 38.3833 -78.0500 322° Northwest 131 151 3,000 120 Climbing Potomac TRACON
12:07PM 38.4167 -78.0833 322° Northwest 140 161 3,200 180 Climbing Potomac TRACON
12:08PM 38.4500 -78.1000 339° North 127 146 3,400 120 Climbing Potomac TRACON
12:09PM 38.4833 -78.1333 322° Northwest 133 153 3,500 360 Climbing Potomac TRACON
12:10PM 38.5000 -78.1667 303° West 119 137 4,200 540 Climbing Potomac TRACON
12:11PM 38.5333 -78.1833 339° North 126 145 4,600 480 Climbing Potomac TRACON
12:13PM 38.5833 -78.2333 322° Northwest 123 142 5,600 480 Climbing Potomac TRACON
12:14PM 38.6167 -78.2667 322° Northwest 120 138 6,100 420 Climbing Potomac TRACON
12:15PM 38.6333 -78.2833 322° Northwest 128 147 6,500 240 Climbing Potomac TRACON
12:15PM 38.6619 -78.3036 331° Northwest 132 152 6,500 -60 Level Washington Center
12:16PM 38.7008 -78.3369 326° Northwest 145 167 6,400  Descending Washington Center
12:18PM 38.7493 -78.3826 322° Northwest  Level FlightAware Approximate
12:18PM 38.7783 -78.4064 322° Northwest 167 192 6,500  Level Washington Center
12:19PM 38.8150 -78.4425 323° Northwest 172 198 6,500  Level Washington Center
12:20PM 38.8539 -78.4786 324° Northwest 172 198 6,500  Level Washington Center
12:21PM 38.8925 -78.5122 326° Northwest 172 198 6,500  Level Washington Center
12:22PM 38.9292 -78.5508 321° Northwest 172 198 6,500  Level Washington Center
12:23PM 38.9678 -78.5844 326° Northwest 172 198 6,500  Level Washington Center
12:24PM 39.0067 -78.6181 326° Northwest 172 198 6,500  Level Washington Center
12:25PM 39.0453 -78.6544 324° Northwest 172 198 6,500  Level Washington Center
12:26PM 39.0819 -78.6908 322° Northwest 172 198 6,500  Level Washington Center
12:27PM 39.1206 -78.7272 324° Northwest 172 198 6,500  Level Washington Center
12:28PM 39.1572 -78.7608 325° Northwest 172 198 6,500  Level Washington Center
12:29PM 39.1981 -78.7975 325° Northwest 172 198 6,500  Level Washington Center
12:30PM 39.2367 -78.8342 324° Northwest 172 198 6,500  Level Washington Center
12:32PM 39.3169 -78.9169 321° Northwest 173 199 6,500  Level Cleveland Center
12:33PM 39.3572 -78.9508 327° Northwest 174 200 6,500  Level Cleveland Center
12:34PM 39.3889 -78.9850 320° Northwest 176 203 6,500  Level Cleveland Center
12:35PM 39.4333 -79.0269 324° Northwest 176 203 6,500  Level Cleveland Center
12:36PM 39.4756 -79.0636 326° Northwest 175 201 6,500  Level Cleveland Center
12:37PM 39.5136 -79.1033 321° Northwest 176 203 6,500  Level Cleveland Center
12:38PM 39.5578 -79.1425 326° Northwest 178 205 6,500  Level Cleveland Center
12:39PM 39.5936 -79.1769 323° Northwest 175 201 6,500  Level Cleveland Center
12:40PM 39.6336 -79.2139 325° Northwest 176 203 6,500  Level Cleveland Center
12:41PM 39.6717 -79.2508 323° Northwest 178 205 6,500  Level Cleveland Center
12:42PM 39.7117 -79.2906 323° Northwest 179 206 6,500 -60 Level Cleveland Center
12:43PM 39.7558 -79.3275 327° Northwest 176 203 6,400  Descending Cleveland Center
12:44PM 39.7958 -79.3644 325° Northwest 175 201 6,500  Climbing Cleveland Center
12:45PM 39.8317 -79.4017 321° Northwest 177 204 6,500  Level Cleveland Center
12:46PM 39.8717 -79.4417 322° Northwest 175 201 6,500  Level Cleveland Center
12:47PM 39.9117 -79.4814 323° Northwest 177 204 6,500  Level Cleveland Center
12:48PM 39.9517 -79.5189 324° Northwest 178 205 6,500  Level Cleveland Center
12:49PM 39.9917 -79.5561 325° Northwest 177 204 6,500  Level Cleveland Center
12:50PM 40.0336 -79.5961 324° Northwest 180 207 6,500  Level Cleveland Center
12:52PM 40.0830 -79.6330 323° Northwest  Level FlightAware Approximate
12:59PM 40.3657 -79.9157 323° Northwest  Level FlightAware Approximate
01:00PM 40.4067 -79.9552 324° Northwest  Level FlightAware Approximate
01:01PM 40.4477 -79.9946 324° Northwest  Level FlightAware Approximate
01:02PM 40.4887 -80.0341 324° Northwest  Level FlightAware Approximate
01:03PM 40.5296 -80.0737 324° Northwest  Level FlightAware Approximate
01:04PM 40.5706 -80.1133 324° Northwest  Level FlightAware Approximate
01:05PM 40.6115 -80.1530 324° Northwest  Level FlightAware Approximate
01:06PM 40.6524 -80.1927 324° Northwest  Level FlightAware Approximate
01:07PM 40.6933 -80.2324 324° Northwest  Level FlightAware Approximate
01:08PM 40.7342 -80.2722 324° Northwest  Level FlightAware Approximate
01:09PM 40.7751 -80.3121 324° Northwest  Level FlightAware Approximate
01:10PM 40.8159 -80.3520 324° Northwest  Level FlightAware Approximate
01:11PM 40.8568 -80.3919 324° Northwest  Level FlightAware Approximate
01:12PM 40.8976 -80.4319 323° Northwest  Level FlightAware Approximate
01:13PM 40.9384 -80.4720 323° Northwest  Level FlightAware Approximate
01:14PM 40.9784 -80.5135 321° Northwest  Level FlightAware Approximate
01:15PM 41.0180 -80.5556 321° Northwest  Level FlightAware Approximate
01:16PM 41.0577 -80.5978 321° Northwest  Level FlightAware Approximate
01:17PM 41.0973 -80.6401 321° Northwest  Level FlightAware Approximate
01:18PM 41.1368 -80.6824 321° Northwest  Level FlightAware Approximate
01:19PM 41.1764 -80.7247 321° Northwest  Level FlightAware Approximate
01:20PM 41.2164 -80.7663 323° Northwest  Level FlightAware Approximate
01:21PM 41.2571 -80.8068 323° Northwest  Level FlightAware Approximate
01:22PM 41.2978 -80.8474 323° Northwest  Level FlightAware Approximate
01:23PM 41.3384 -80.8880 323° Northwest  Level FlightAware Approximate
01:23PM 41.2989 -80.8403 322° Northwest 169 194 6,500  Level Cleveland Center
01:24PM 41.3791 -80.9286 323° Northwest  Level FlightAware Approximate
01:24PM 41.3281 -80.8708 322° Northwest 170 196 6,500  Level Cleveland Center
01:25PM 41.4197 -80.9693 323° Northwest  Level FlightAware Approximate
01:25PM 41.3653 -80.9069 324° Northwest 171 197 6,400  Level Cleveland Center
01:26PM 41.4603 -81.0101 323° Northwest  Level FlightAware Approximate
01:26PM 41.4069 -80.9431 327° Northwest 171 197 6,500  Level Cleveland Center
01:27PM 41.5009 -81.0509 322° Northwest  Level FlightAware Approximate
01:27PM 41.4486 -80.9903 320° Northwest 172 198 6,500  Level Cleveland Center
01:28PM 41.5410 -81.0925 322° Northwest  Level FlightAware Approximate
01:28PM 41.4881 -81.0322 321° Northwest 171 197 6,500  Level Cleveland Center
01:29PM 41.5253 -81.0686 324° Northwest 171 197 6,500  Level Cleveland Center
01:30PM 41.5669 -81.1078 325° Northwest 168 193 6,500  Level Cleveland Center
01:31PM 41.6000 -81.1439 321° Northwest 169 194 6,500  Level Cleveland Center
01:32PM 41.6375 -81.1833 322° Northwest 168 193 6,500  Level Cleveland Center
01:33PM 41.6789 -81.2281 321° Northwest 168 193 6,500  Level Cleveland Center
01:34PM 41.7142 -81.2619 324° Northwest 168 193 6,500  Level Cleveland Center
01:35PM 41.7347 -81.2844 321° Northwest 170 196 6,500  Level Cleveland Center
01:35PM 41.7556 -81.3014 329° Northwest 168 193 6,500  Level Cleveland Center
01:36PM 41.7783 -81.3267 320° Northwest 178 205 6,500  Level Cleveland Center
01:37PM 41.8136 -81.3631 322° Northwest 173 199 6,500  Level Cleveland Center
01:38PM 41.8486 -81.3997 322° Northwest 173 199 6,500  Level Cleveland Center
01:39PM 41.8858 -81.4367 324° Northwest 173 199 6,500  Level Cleveland Center
01:40PM 41.9231 -81.4761 322° Northwest 168 193 6,500  Level Cleveland Center
01:41PM 41.9583 -81.5131 322° Northwest 168 193 6,500  Level Cleveland Center
01:42PM 41.9933 -81.5497 322° Northwest 163 188 6,500 -60 Level Cleveland Center
01:43PM 42.0328 -81.5839 327° Northwest 163 188 6,400  Descending Cleveland Center
01:44PM 42.0700 -81.6236 322° Northwest 163 188 6,500  Climbing Cleveland Center
01:45PM 42.1092 -81.6636 323° Northwest 168 193 6,500  Level Cleveland Center
01:46PM 42.1461 -81.7033 321° Northwest 168 193 6,500  Level Cleveland Center
01:47PM 42.1814 -81.7403 322° Northwest 168 193 6,500  Level Cleveland Center
01:48PM 42.2206 -81.7747 327° Northwest 175 201 6,500  Level Cleveland Center
01:49PM 42.2597 -81.8175 321° Northwest 175 201 6,500  Level Cleveland Center
01:50PM 42.2947 -81.8575 320° Northwest 175 201 6,500  Level Cleveland Center
01:51PM 42.3339 -81.9006 321° Northwest 175 201 6,500  Level Cleveland Center
01:52PM 42.3731 -81.9406 323° Northwest 175 201 6,500  Level Cleveland Center
01:53PM 42.4122 -81.9808 323° Northwest 175 201 6,500  Level Cleveland Center
01:54PM 42.4553 -82.0239 324° Northwest 175 201 6,500  Level Cleveland Center
01:55PM 42.4922 -82.0669 319° Northwest 175 201 6,600  Climbing Cleveland Center
01:56PM 42.5333 -82.1075 324° Northwest 175 201 6,600 -60 Level Cleveland Center
01:57PM 42.5744 -82.1508 322° Northwest 175 201 6,500 -60 Descending Cleveland Center
01:58PM 42.6114 -82.1942 319° Northwest 175 201 6,500 -180 Level Cleveland Center
01:59PM 42.6525 -82.2347 324° Northwest 175 201 6,200 -600 Descending Cleveland Center
02:00PM 42.6936 -82.2808 321° Northwest 182 209 5,400 -900 Descending Cleveland Center
02:01PM 42.7347 -82.3244 322° Northwest 187 215 4,500 -960 Descending Cleveland Center
02:02PM 42.7778 -82.3653 325° Northwest 194 223 3,500 -960 Descending Cleveland Center
02:03PM 42.8167 -82.4089 321° Northwest 194 223 2,600 -480 Descending Cleveland Center
02:04PM 42.8536 -82.4494 321° Northwest 194 223 2,600  Level Cleveland Center
02:08PM 42.9000 -82.5167 324° Northwest  Level FlightAware Approximate